Flight Track Log - Related Links

Times and Time Zones

All times are in EDT time to prevent confusion due to time zone crossing. See the MAS6112 flight status page for this flight to view local times or setup timezone preferences in your user account.

Time Position Orientation Groundspeed Altitude Reporting Facility
EDT Latitude Longitude Course Direction KTS MPH feet Rate Location/Type
Thu 04:14:57 PM 4.5032 102.5550 23° Northeast 411 473 38,600  Level FlightAware ADS-B (WMKP / PEN)
Thu 04:15:35 PM 4.5736 102.5847 23° Northeast 414 476 39,000 110 Climbing FlightAware ADS-B (WMKP / PEN)
Thu 04:18:36 PM 4.9087 102.7261 23° Northeast 439 505 39,000  Level FlightAware ADS-B (WMKP / PEN)
Thu 04:19:16 PM 4.9838 102.7579 23° Northeast 440 506 39,000  Level FlightAware ADS-B (WMKP / PEN)
Thu 04:19:54 PM 5.0565 102.7885 23° Northeast 441 507 39,000 38 Level FlightAware ADS-B (WMKP / PEN)
Thu 05:11:26 PM 10.1423 106.1599 35° Northeast 434 499 41,000 38 Climbing FlightAware ADS-B (VVTS / SGN)
Thu 05:12:31 PM 10.2844 106.2609 35° Northeast 435 501 41,000  Level FlightAware ADS-B (VVTS / SGN)
Thu 05:12:52 PM 10.2955 106.2689 35° Northeast 435 501 41,000  Level FlightAware ADS-B (VVTS / SGN)
Thu 05:14:01 PM 10.4332 106.3684 35° Northeast 434 499 41,000  Level FlightAware ADS-B (VVTS / SGN)
Thu 05:14:27 PM 10.4732 106.3972 35° Northeast 433 498 41,000  Level FlightAware ADS-B (VVTS / SGN)
Thu 05:14:45 PM 10.5066 106.4214 35° Northeast 433 498 41,000  Level FlightAware ADS-B (VVTS / SGN)
Thu 05:15:25 PM 10.5703 106.4673 35° Northeast 435 501 41,000  Level FlightAware ADS-B (VVTS / SGN)
Thu 05:16:04 PM 10.6348 106.5139 35° Northeast 436 502 41,000  Level FlightAware ADS-B (VVTS / SGN)
Thu 05:16:23 PM 10.6677 106.5378 35° Northeast 436 502 41,000  Level FlightAware ADS-B (VVTS / SGN)
Thu 05:16:56 PM 10.7198 106.5755 36° Northeast 437 503 41,000  Level FlightAware ADS-B (VVTS / SGN)
Thu 05:17:38 PM 10.7884 106.6294 37° Northeast 436 502 41,000  Level FlightAware ADS-B (VVTS / SGN)
Thu 05:18:09 PM 10.8397 106.6697 37° Northeast 437 503 41,000  Level FlightAware ADS-B (VVTS / SGN)
Thu 05:18:38 PM 10.8851 106.7055 38° Northeast 436 502 41,000  Level FlightAware ADS-B (VVTS / SGN)
Thu 05:19:13 PM 10.9407 106.7494 38° Northeast 436 502 41,000  Level FlightAware ADS-B (VVTS / SGN)
Thu 05:19:42 PM 10.9861 106.7852 37° Northeast 437 503 41,000  Level FlightAware ADS-B (VVTS / SGN)
Thu 05:20:05 PM 11.0239 106.8150 37° Northeast 437 503 41,000  Level FlightAware ADS-B (VVTS / SGN)
Thu 05:20:44 PM 11.0857 106.8639 38° Northeast 438 504 41,000  Level FlightAware ADS-B (VVTS / SGN)
Thu 05:21:04 PM 11.1194 106.8905 37° Northeast 438 504 41,000  Level FlightAware ADS-B (VVTS / SGN)
Thu 05:21:35 PM 11.1689 106.9296 37° Northeast 440 506 41,000  Level FlightAware ADS-B (VVTS / SGN)
Thu 05:22:11 PM 11.2264 106.9752 37° Northeast 439 505 41,000  Level FlightAware ADS-B (VVTS / SGN)
Thu 05:22:37 PM 11.2692 107.0091 38° Northeast 439 505 41,000  Level FlightAware ADS-B (VVTS / SGN)
Thu 05:23:12 PM 11.3233 107.0519 37° Northeast 440 506 41,000  Level FlightAware ADS-B (VVTS / SGN)
Thu 05:23:37 PM 11.3644 107.0844 38° Northeast 439 505 41,000  Level FlightAware ADS-B (VVTS / SGN)
Thu 05:24:05 PM 11.4107 107.1212 37° Northeast 440 506 41,000  Level FlightAware ADS-B (VVTS / SGN)
Thu 05:24:43 PM 11.4715 107.1694 37° Northeast 440 506 41,000  Level FlightAware ADS-B (VVTS / SGN)
Thu 05:25:11 PM 11.5163 107.2049 38° Northeast 440 506 41,000  Level FlightAware ADS-B (VVTS / SGN)
Thu 05:25:39 PM 11.5598 107.2395 38° Northeast 442 509 41,000  Level FlightAware ADS-B (VVTS / SGN)
Thu 05:26:09 PM 11.6103 107.2795 38° Northeast 442 509 41,000  Level FlightAware ADS-B (VVTS / SGN)
Thu 05:26:36 PM 11.6529 107.3134 38° Northeast 442 509 41,000  Level FlightAware ADS-B (VVTS / SGN)
Thu 05:27:07 PM 11.7033 107.3534 38° Northeast 443 510 41,000  Level FlightAware ADS-B (VVTS / SGN)
Thu 05:27:34 PM 11.7483 107.3892 38° Northeast 442 509 41,000  Level FlightAware ADS-B (VVTS / SGN)
Thu 05:28:11 PM 11.8043 107.4337 37° Northeast 443 510 41,000  Level FlightAware ADS-B (VVTS / SGN)
Thu 05:28:53 PM 11.8626 107.4802 38° Northeast 443 510 41,000  Level FlightAware ADS-B (VVTS / SGN)
Thu 05:29:19 PM 11.8937 107.5050 38° Northeast 443 510 41,000  Level FlightAware ADS-B (VVTS / SGN)
Thu 05:32:00 PM 12.1745 107.6680 30° Northeast  Level Estimated
Thu 05:33:00 PM 12.2791 107.7289 30° Northeast  Level Estimated
Thu 05:34:00 PM 12.3837 107.7898 30° Northeast  Level Estimated
Thu 05:35:00 PM 12.4883 107.8508 30° Northeast  Level Estimated
Thu 05:36:00 PM 12.5929 107.9118 30° Northeast  Level Estimated
Thu 05:37:00 PM 12.6975 107.9728 30° Northeast  Level Estimated
Thu 05:38:00 PM 12.8020 108.0339 30° Northeast  Level Estimated
Thu 05:39:00 PM 12.9066 108.0951 30° Northeast  Level Estimated
Thu 05:40:00 PM 13.0111 108.1563 30° Northeast  Level Estimated
Thu 05:41:00 PM 13.1156 108.2175 30° Northeast  Level Estimated
Thu 05:42:00 PM 13.2201 108.2788 30° Northeast  Level Estimated
Thu 05:43:00 PM 13.3246 108.3402 30° Northeast  Level Estimated
Thu 05:44:00 PM 13.4291 108.4016 30° Northeast  Level Estimated
Thu 05:45:00 PM 13.5335 108.4631 30° Northeast  Level Estimated
Thu 05:46:00 PM 13.6380 108.5246 30° Northeast  Level Estimated
Thu 05:47:00 PM 13.7424 108.5862 30° Northeast  Level Estimated
Thu 05:48:00 PM 13.8468 108.6478 30° Northeast  Level Estimated
Thu 05:49:00 PM 13.9512 108.7095 30° Northeast  Level Estimated
Thu 05:50:00 PM 14.0556 108.7712 30° Northeast  Level Estimated
Thu 05:51:00 PM 14.1599 108.8331 30° Northeast  Level Estimated
Thu 05:52:00 PM 14.2643 108.8949 30° Northeast  Level Estimated
Thu 05:53:00 PM 14.3686 108.9568 30° Northeast  Level Estimated
Thu 05:54:00 PM 14.4729 109.0188 30° Northeast  Level Estimated
Thu 05:55:00 PM 14.5772 109.0808 30° Northeast  Level Estimated
Thu 05:56:00 PM 14.6815 109.1429 30° Northeast  Level Estimated
Thu 05:57:00 PM 14.7858 109.2051 30° Northeast  Level Estimated
Thu 05:58:00 PM 14.8900 109.2673 30° Northeast  Level Estimated
Thu 05:59:00 PM 14.9942 109.3295 30° Northeast  Level Estimated
Thu 06:00:00 PM 15.0984 109.3919 30° Northeast  Level Estimated
Thu 06:01:00 PM 15.2026 109.4543 30° Northeast  Level Estimated
Thu 06:02:00 PM 15.3068 109.5167 30° Northeast  Level Estimated
Thu 06:03:00 PM 15.4110 109.5792 30° Northeast  Level Estimated
Thu 06:04:00 PM 15.5151 109.6418 30° Northeast  Level Estimated
Thu 06:05:00 PM 15.6193 109.7044 30° Northeast  Level Estimated
Thu 06:06:00 PM 15.7234 109.7671 30° Northeast  Level Estimated
Thu 06:07:00 PM 15.8274 109.8299 30° Northeast  Level Estimated
Thu 06:08:00 PM 15.9315 109.8927 30° Northeast  Level Estimated
Thu 06:09:00 PM 16.0356 109.9556 30° Northeast  Level Estimated
Thu 06:10:00 PM 16.1396 110.0186 30° Northeast  Level Estimated
Thu 06:11:00 PM 16.2436 110.0816 30° Northeast  Level Estimated
Thu 06:12:00 PM 16.3476 110.1447 30° Northeast  Level Estimated
Thu 06:13:00 PM 16.4516 110.2079 30° Northeast  Level Estimated
Thu 06:14:00 PM 16.5556 110.2711 30° Northeast  Level Estimated
Thu 06:15:00 PM 16.6595 110.3344 30° Northeast  Level Estimated
Thu 06:16:00 PM 16.7634 110.3978 30° Northeast  Level Estimated
Thu 06:17:00 PM 16.8673 110.4612 30° Northeast  Level Estimated
Thu 06:18:00 PM 16.9712 110.5247 30° Northeast  Level Estimated
Thu 06:19:00 PM 17.0751 110.5883 30° Northeast  Level Estimated
Thu 06:20:00 PM 17.1789 110.6520 30° Northeast  Level Estimated
Thu 06:21:00 PM 17.2828 110.7157 30° Northeast  Level Estimated
Thu 06:22:00 PM 17.3866 110.7795 30° Northeast  Level Estimated
Thu 06:23:00 PM 17.4904 110.8433 30° Northeast  Level Estimated
Thu 06:24:00 PM 17.5941 110.9073 30° Northeast  Level Estimated
Thu 06:25:00 PM 17.6979 110.9713 30° Northeast  Level Estimated
Thu 06:26:00 PM 17.8016 111.0354 30° Northeast  Level Estimated
Thu 06:27:00 PM 17.9053 111.0995 30° Northeast  Level Estimated
Thu 06:28:00 PM 18.0090 111.1638 31° Northeast  Level Estimated
Thu 06:29:00 PM 18.1126 111.2281 31° Northeast  Level Estimated
Thu 06:30:00 PM 18.2163 111.2925 31° Northeast  Level Estimated
Thu 06:31:00 PM 18.3199 111.3569 31° Northeast  Level Estimated
Thu 06:32:00 PM 18.4235 111.4215 31° Northeast  Level Estimated
Thu 06:33:00 PM 18.5271 111.4861 31° Northeast  Level Estimated
Thu 06:34:00 PM 18.6306 111.5508 31° Northeast  Level Estimated
Thu 06:35:00 PM 18.7341 111.6155 31° Northeast  Level Estimated
Thu 06:36:00 PM 18.8376 111.6804 31° Northeast  Level Estimated
Thu 06:37:00 PM 18.9411 111.7453 31° Northeast  Level Estimated
Thu 06:38:00 PM 19.0446 111.8103 31° Northeast  Level Estimated
Thu 06:39:00 PM 19.1480 111.8755 31° Northeast  Level Estimated
Thu 06:40:00 PM 19.2514 111.9406 31° Northeast  Level Estimated
Thu 06:41:00 PM 19.3548 112.0059 31° Northeast  Level Estimated
Thu 06:42:00 PM 19.4582 112.0712 31° Northeast  Level Estimated
Thu 06:43:00 PM 19.5615 112.1367 31° Northeast  Level Estimated
Thu 06:44:00 PM 19.6649 112.2022 31° Northeast  Level Estimated
Thu 06:45:00 PM 19.7682 112.2678 31° Northeast  Level Estimated
Thu 06:46:00 PM 19.8714 112.3334 31° Northeast  Level Estimated
Thu 06:47:00 PM 19.9747 112.3992 31° Northeast  Level Estimated
Thu 06:48:00 PM 20.0779 112.4650 31° Northeast  Level Estimated
Thu 06:49:00 PM 20.1811 112.5310 31° Northeast  Level Estimated
Thu 06:49:48 PM 20.3580 112.7789 16° North 475 547 41,000  Level FlightAware ADS-B
Thu 06:50:00 PM 20.2843 112.5970 31° Northeast  Level Estimated
Thu 06:51:00 PM 20.3874 112.6631 31° Northeast  Level Estimated
Thu 06:51:07 PM 20.5117 112.8265 16° North 474 545 40,200  Level FlightAware ADS-B
Thu 06:53:01 PM 20.7647 112.9050 16° North 478 550 36,500 -2,099 Descending FlightAware ADS-B
Thu 06:54:30 PM 20.9449 112.9611 16° North 480 552 33,100 -2,320 Descending FlightAware ADS-B
Thu 06:55:31 PM 21.0853 113.0048 16° North 474 545 30,700 -2,637 Descending FlightAware ADS-B
Thu 06:57:32 PM 21.2857 113.1697 52° Northeast 455 524 25,100 -2,738 Descending FlightAware ADS-B
Thu 06:58:11 PM 21.3365 113.2360 46° Northeast 446 513 23,400 -2,644 Descending FlightAware ADS-B
Thu 06:58:31 PM 21.3682 113.2631 35° Northeast 443 510 22,500 -2,852 Descending FlightAware ADS-B
Thu 06:59:12 PM 21.4352 113.3093 33° Northeast 442 509 20,500 -2,741 Descending FlightAware ADS-B
Thu 06:59:52 PM 21.5071 113.3590 33° Northeast 430 495 18,800 -2,150 Descending FlightAware ADS-B
Thu 07:01:12 PM 21.6364 113.4484 33° Northeast 388 447 16,200 -1,664 Descending FlightAware ADS-B
Thu 07:01:51 PM 21.6912 113.4864 33° Northeast 342 394 15,500 -1,519 Descending FlightAware ADS-B
Thu 07:02:31 PM 21.7410 113.5209 33° Northeast 314 361 14,200 -2,148 Descending FlightAware ADS-B
Thu 07:03:12 PM 21.7905 113.5552 33° Northeast 306 352 12,600 -2,325 Descending FlightAware ADS-B
Thu 07:03:51 PM 21.8152 113.5724 33° Northeast 303 349 11,100 -1,899 Descending FlightAware ADS-B
Thu 07:04:31 PM 21.8825 113.6191 33° Northeast 298 343 10,100 -1,474 Descending FlightAware ADS-B
Thu 07:04:48 PM 21.9004 113.6315 33° Northeast 298 343 9,700 -1,421 Descending FlightAware ADS-B
Thu 07:05:09 PM 21.9276 113.6505 33° Northeast 294 338 9,200 -1,385 Descending FlightAware ADS-B
Thu 07:05:27 PM 21.9480 113.6647 33° Northeast 294 338 8,800 -1,000 Descending FlightAware ADS-B
Thu 07:05:51 PM 21.9648 113.6764 33° Northeast 285 328 8,500 -837 Descending FlightAware ADS-B
Thu 07:06:10 PM 21.9959 113.6980 33° Northeast 279 321 8,200 -1,050 Descending FlightAware ADS-B
Thu 07:06:31 PM 22.0175 113.7131 33° Northeast 275 316 7,800 -1,050 Descending FlightAware ADS-B
Thu 07:06:50 PM 22.0392 113.7283 33° Northeast 273 314 7,500 -923 Descending FlightAware ADS-B
Thu 07:07:10 PM 22.0605 113.7431 33° Northeast 267 307 7,200 -878 Descending FlightAware ADS-B
Thu 07:07:31 PM 22.0810 113.7573 33° Northeast 264 304 6,900 -732 Descending FlightAware ADS-B
Thu 07:07:51 PM 22.1018 113.7701 30° Northeast 257 296 6,700 -632 Descending FlightAware ADS-B
Thu 07:08:09 PM 22.1206 113.7697 342° North 246 283 6,500 -600 Descending FlightAware ADS-B
Thu 07:08:31 PM 22.1435 113.7585 334° Northwest 229 264 6,300 -732 Descending FlightAware ADS-B
Thu 07:08:50 PM 22.1615 113.7490 334° Northwest 213 245 6,000 -1,200 Descending FlightAware ADS-B
Thu 07:09:11 PM 22.1767 113.7413 335° Northwest 209 241 5,500 -1,782 Descending FlightAware ADS-B
Thu 07:10:31 PM 22.2437 113.7393 335° Northwest 206 237 3,000 -1,697 Descending FlightAware ADS-B
Thu 07:10:50 PM 22.2546 113.7540 51° Northeast 191 220 2,700 -947 Descending FlightAware ADS-B
Thu 07:13:00 PM 22.3089 113.9146 70° East  Level Estimated
Thu 07:14:00 PM 22.3089 113.9146 North  Level Estimated
Thu 07:15:00 PM 22.3089 113.9146 North  Level Estimated
Thu 07:16:00 PM 22.3089 113.9146 North  Level Estimated
Thu 07:17:00 PM 22.3089 113.9146 North  Level Estimated
Thu 07:18:00 PM 22.3089 113.9146 North  Level Estimated
Thu 07:19:00 PM 22.3089 113.9146 North  Level Estimated
Thu 07:20:00 PM 22.3089 113.9146 North  Level Estimated
Thu 07:21:00 PM 22.3089 113.9146 North  Level Estimated
Thu 07:22:00 PM 22.3089 113.9146 North  Level Estimated
Thu 07:23:00 PM 22.3089 113.9146 North  Level Estimated
Thu 07:24:00 PM 22.3089 113.9146 North  Level Estimated
Thu 07:25:00 PM 22.3089 113.9146 North  Level Estimated
Thu 07:26:00 PM 22.3089 113.9146 North  Level Estimated
Thu 07:27:00 PM 22.3089 113.9146 North  Level Estimated
Thu 07:28:00 PM 22.3089 113.9146 North  Level Estimated
Thu 07:29:00 PM 22.3089 113.9146 North  Level Estimated
Thu 07:30:00 PM 22.3089 113.9146 North  Level Estimated
Thu 07:31:00 PM 22.3089 113.9146 North  Level Estimated
Thu 07:32:00 PM 22.3089 113.9146 North  Level Estimated
Thu 07:33:00 PM 22.3089 113.9146 North  Level Estimated
Thu 07:34:00 PM 22.3089 113.9146 North  Level Estimated
Thu 07:35:00 PM 22.3089 113.9146 North  Level Estimated
Thu 07:36:00 PM 22.3089 113.9146 North  Level Estimated
Thu 07:37:00 PM 22.3089 113.9146 North  Level Estimated
Thu 07:38:00 PM 22.3089 113.9146 North  Level Estimated
Thu 07:39:00 PM 22.3089 113.9146 North  Level Estimated
Thu 07:40:00 PM 22.3089 113.9146 North  Level Estimated
Thu 07:41:00 PM 22.3089 113.9146 North  Level Estimated

Login

Don't have an account? Register now (free) for customized features, flight alerts, and more!